Terminal Aerodrome Forecast
Issued by NWS Cleveland, OH

Home | Current Version | Previous Version | Text Only | Print | Product List | Glossary Off
Versions: 1 2 3 4 5 6 7 8 9 10 11 12 13 14 15 16 17 18 19 20 21 22 23 24 25 26 27 28

000
FTUS41 KCLE 231435 AAB
TAFCLE
TAF AMD
KCLE 231435Z 2315/2418 24004KT P6SM SCT020 BKN040
     FM231800 29006KT P6SM VCTS SCT030CB BKN050
     FM232100 29005KT P6SM SCT045 BKN120
      TEMPO 2321/2324 5SM -TSRA BKN035CB=

USA.gov is the U.S. government's official web portal to all federal, state and local government web resources and services.